B0100 / F-HTAG 7700 Squawk Report (24th of September, 2018)

Aircraft B752 Reg No. F-HTAG Age 18 years old
Model 757 Jet engines 2 First flight 25-04-00
Registered 27-06-14 Rollout N/A Delivered 12-05-00
Construction No. 29307 Line No. 0924 Series 256
ADSHEX 39CC06 Airline name La Compagnie Owner EAirco Ehf
Airfield based Paris-Charles de Gaulle~Val-d'Oise~F First tracked 2014-07-21 16:24:01

Flight history for F-HTAG

Route Flight No Date Playback
Orly (ORY) - Newark Liberty Intl (EWR) B0100 2018-10-16 16:33:00
Newark Liberty Intl (EWR) - Orly (ORY) B0101 2018-10-16 08:50:00
Orly (ORY) - Newark Liberty Intl (EWR) B0102 2018-10-15 23:04:00
Newark Liberty Intl (EWR) - Orly (ORY) B0103 2018-10-15 12:59:00
Orly (ORY) - Newark Liberty Intl (EWR) B0100 2018-10-15 01:41:00
Newark Liberty Intl (EWR) - Orly (ORY) B0101 2018-10-14 08:40:00
Orly (ORY) - Newark Liberty Intl (EWR) B0102 2018-10-13 22:55:00
Newark Liberty Intl (EWR) - Orly (ORY) B0103 2018-10-13 12:43:00
Orly (ORY) - Newark Liberty Intl (EWR) B0100 2018-10-13 01:36:00
Newark Liberty Intl (EWR) - Orly (ORY) B0101 2018-10-12 08:39:00
Orly (ORY) - Newark Liberty Intl (EWR) B0102 2018-10-11 22:55:00
Newark Liberty Intl (EWR) - Orly (ORY) B0103 2018-10-11 12:48:00
Orly (ORY) - Newark Liberty Intl (EWR) B0100 2018-10-11 01:32:00
Newark Liberty Intl (EWR) - Orly (ORY) B0103 2018-10-09 08:26:00
???? N/A 2018-10-09 01:33:00
Newark Liberty Intl (EWR) - Orly (ORY) B0103 2018-10-08 13:08:00
???? N/A 2018-10-08 01:42:00
Newark Liberty Intl (EWR) - Orly (ORY) B0101 2018-10-07 08:49:00
Orly (ORY) - Newark Liberty Intl (EWR) B0102 2018-10-06 23:32:00
Newark Liberty Intl (EWR) - Orly (ORY) B0103 2018-10-06 13:17:00
Time Lat Lon Altitude Heading Speed Vertical Rate
2018-09-24 10:29:50 GMT 48.713379 2.349014 0 81 3 0
2018-09-24 10:27:15 GMT 48.712181 2.342853 0 81 7 0
2018-09-24 10:26:51 GMT 48.712006 2.341642 0 81 7 0
2018-09-24 10:26:42 GMT 48.712006 2.341303 0 81 7 0
2018-09-24 10:26:33 GMT 48.711830 2.340775 0 81 7 0
2018-09-24 10:26:15 GMT 48.711662 2.340088 0 81 7 0
2018-09-24 10:26:11 GMT 48.711666 2.339925 0 81 7 0
2018-09-24 10:26:00 GMT 48.711662 2.339419 0 81 7 0
2018-09-24 10:25:19 GMT 48.712681 2.338371 0 81 10 0
2018-09-24 10:25:08 GMT 48.713024 2.338204 0 81 11 0
2018-09-24 10:24:58 GMT 48.713539 2.338204 0 81 10 0
2018-09-24 10:24:53 GMT 48.713711 2.338028 0 81 10 0
2018-09-24 10:24:42 GMT 48.714401 2.337865 0 81 11 0
2018-09-24 10:24:32 GMT 48.714741 2.337865 0 81 11 0
2018-09-24 10:24:08 GMT 48.715942 2.337517 0 81 11 0
2018-09-24 10:23:52 GMT 48.716625 2.337341 0 81 10 0
2018-09-24 10:23:39 GMT 48.717144 2.337165 0 81 9 0
2018-09-24 10:23:30 GMT 48.717487 2.337016 0 81 9 0
2018-09-24 10:23:25 GMT 48.717663 2.336835 0 81 8 0
2018-09-24 10:23:06 GMT 48.718010 2.336311 0 81 7 0
2018-09-24 10:22:58 GMT 48.718185 2.336144 0 81 7 0
2018-09-24 10:22:26 GMT 48.718697 2.336131 0 81 2 0
2018-09-24 10:22:10 GMT 48.718872 2.336144 0 81 2 0
2018-09-24 10:22:07 GMT 48.718872 2.336131 0 81 2 0
2018-09-24 10:21:45 GMT 48.719044 2.335968 0 81 4 0
2018-09-24 10:21:33 GMT 48.719212 2.335805 0 81 4 0
2018-09-24 10:21:10 GMT 48.719559 2.334793 0 81 12 0
2018-09-24 10:20:53 GMT 48.719383 2.332734 0 81 24 0
2018-09-24 10:20:47 GMT 48.719219 2.331722 0 81 30 0
2018-09-24 10:20:37 GMT 48.719048 2.329463 0 75 31 0
2018-09-24 10:19:25 GMT 48.703629 2.285438 0 62 132 -704
2018-09-24 10:19:18 GMT 48.702118 2.281283 50 62 132 -704
2018-09-24 10:19:07 GMT 48.698528 2.271134 200 62 134 -704
2018-09-24 10:18:57 GMT 48.695435 2.262198 350 61 138 -640
2018-09-24 10:18:50 GMT 48.693874 2.257835 400 62 138 -832
2018-09-24 10:18:45 GMT 48.692001 2.252197 525 62 136 -640
2018-09-24 10:18:42 GMT 48.691265 2.250607 525 62 136 -640
2018-09-24 10:18:33 GMT 48.688568 2.242831 700 61 138 -896
2018-09-24 10:18:27 GMT 48.687012 2.238183 700 61 138 -896
2018-09-24 10:18:22 GMT 48.685318 2.233394 775 62 139 -768
2018-09-24 10:18:14 GMT 48.682888 2.226755 975 62 139 -704
2018-09-24 10:18:11 GMT 48.681702 2.223041 925 61 139 -768
2018-09-24 10:18:07 GMT 48.680653 2.220467 975 61 139 -832
2018-09-24 10:17:58 GMT 48.678093 2.213239 1,075 61 138 -768
2018-09-24 10:17:52 GMT 48.676208 2.207970 2,000 62 135 -832
2018-09-24 10:17:47 GMT 48.674507 2.202831 1,250 61 140 -768
2018-09-24 10:17:43 GMT 48.673485 2.199940 1,350 62 140 -896
2018-09-24 10:17:34 GMT 48.670506 2.191411 1,425 62 139 -832
2018-09-24 10:17:23 GMT 48.667248 2.182521 1,575 61 135 -768
2018-09-24 10:17:13 GMT 48.664169 2.173603 1,725 61 136 -832
2018-09-24 10:17:10 GMT 48.663666 2.172265 1,750 62 136 -640
2018-09-24 10:17:02 GMT 48.661057 2.165152 1,850 62 136 -576
2018-09-24 10:16:59 GMT 48.660400 2.163006 1,875 61 136 -448
2018-09-24 10:16:52 GMT 48.657990 2.156419 1,925 62 135 -576
2018-09-24 10:16:49 GMT 48.656910 2.153031 1,975 61 135 -704
2018-09-24 10:16:44 GMT 48.655609 2.149634 2,025 62 132 -896
2018-09-24 10:16:39 GMT 48.654190 2.145574 2,075 61 132 -768
2018-09-24 10:16:33 GMT 48.652489 2.140888 2,150 61 132 -768
2018-09-24 10:16:29 GMT 48.651279 2.137130 2,275 62 132 -704
2018-09-24 10:16:23 GMT 48.649601 2.132576 2,300 61 133 -832
2018-09-24 10:16:18 GMT 48.647881 2.127589 2,375 61 134 -896
2018-09-24 10:16:10 GMT 48.645786 2.121662 2,475 61 134 -896
2018-09-24 10:16:06 GMT 48.644440 2.117826 2,550 62 135 -768
2018-09-24 10:16:00 GMT 48.642700 2.112896 2,625 61 136 -768
2018-09-24 10:15:54 GMT 48.641129 2.108652 2,675 62 133 -640
2018-09-24 10:15:51 GMT 48.640137 2.105713 2,725 61 136 -768
2018-09-24 10:15:48 GMT 48.639267 2.103665 2,750 61 135 -704
2018-09-24 10:15:39 GMT 48.636337 2.095008 2,875 62 130 -704
2018-09-24 10:15:33 GMT 48.634781 2.090783 2,925 61 132 -768
2018-09-24 10:15:26 GMT 48.632401 2.084304 3,025 61 135 -832
2018-09-24 10:15:18 GMT 48.630157 2.077754 3,125 61 136 -768
2018-09-24 10:15:13 GMT 48.628784 2.074162 3,175 61 133 -640
2018-09-24 10:15:07 GMT 48.627258 2.069550 3,250 61 131 -704
2018-09-24 10:15:02 GMT 48.625721 2.064996 3,300 62 131 -704
2018-09-24 10:14:56 GMT 48.624046 2.060370 3,375 61 133 -704
2018-09-24 10:14:52 GMT 48.622974 2.057262 3,625 62 136 -832
2018-09-24 10:14:46 GMT 48.621094 2.052260 3,500 61 138 -832
2018-09-24 10:14:41 GMT 48.619717 2.048155 3,575 62 136 -768
2018-09-24 10:14:35 GMT 48.617805 2.042879 3,650 61 136 -832
2018-09-24 10:14:31 GMT 48.616272 2.038398 3,725 61 133 -832
2018-09-24 10:14:24 GMT 48.614548 2.033668 3,800 61 131 -768
2018-09-24 10:14:19 GMT 48.613010 2.029218 3,850 61 133 -768
2018-09-24 10:14:14 GMT 48.611847 2.025851 3,925 61 133 -832
2018-09-24 10:14:08 GMT 48.609375 2.019372 4,025 61 134 -832
2018-09-24 10:14:04 GMT 48.608688 2.017118 4,075 61 134 -896
2018-09-24 10:13:56 GMT 48.605473 2.008257 4,225 61 138 -832
2018-09-24 10:13:46 GMT 48.603241 2.001695 4,350 62 140 -896
2018-09-24 10:13:43 GMT 48.602371 1.999300 4,375 62 141 -384
2018-09-24 10:13:32 GMT 48.599094 1.989899 4,400 61 144 0
2018-09-24 10:13:21 GMT 48.595322 1.979370 4,350 61 147 0
2018-09-24 10:13:13 GMT 48.592300 1.971412 4,350 60 158 -64
2018-09-24 10:13:10 GMT 48.591888 1.969933 4,375 61 165 -64
2018-09-24 10:13:00 GMT 48.587780 1.958963 4,375 62 172 -64
2018-09-24 10:12:50 GMT 48.583824 1.947254 4,375 61 175 0
2018-09-24 10:12:38 GMT 48.579529 1.935707 4,375 62 174 0
2018-09-24 10:12:35 GMT 48.578518 1.932510 4,375 61 172 0
2018-09-24 10:12:28 GMT 48.575909 1.924920 4,375 61 172 0
2018-09-24 10:12:25 GMT 48.574047 1.919789 4,375 61 172 0
2018-09-24 10:12:18 GMT 48.572044 1.914295 4,375 60 171 0
2018-09-24 10:12:13 GMT 48.569962 1.908734 4,375 61 171 0
2018-09-24 10:12:08 GMT 48.567902 1.903092 4,375 61 172 -64
2018-09-24 10:12:02 GMT 48.565670 1.896732 4,375 63 172 0
2018-09-24 10:11:57 GMT 48.563599 1.890705 4,375 63 172 64
2018-09-24 10:11:51 GMT 48.561722 1.885141 4,375 62 172 64
2018-09-24 10:11:46 GMT 48.559803 1.879529 4,375 62 171 0
2018-09-24 10:11:40 GMT 48.557568 1.873458 4,375 62 170 0
2018-09-24 10:11:36 GMT 48.556183 1.869366 4,375 61 171 64
2018-09-24 10:11:29 GMT 48.553238 1.861460 4,375 61 171 0
2018-09-24 10:11:25 GMT 48.551926 1.857746 4,375 61 171 0
2018-09-24 10:11:16 GMT 48.548306 1.848161 4,375 61 171 0
2018-09-24 10:11:09 GMT 48.545792 1.841055 4,375 61 173 -64
2018-09-24 10:11:04 GMT 48.543743 1.835223 4,400 61 176 -640
2018-09-24 10:10:53 GMT 48.539600 1.823730 4,575 61 183 -1152
2018-09-24 10:10:43 GMT 48.535263 1.811336 4,750 61 187 -1024
2018-09-24 10:10:33 GMT 48.530777 1.799011 4,925 61 195 -960
2018-09-24 10:10:21 GMT 48.526016 1.785842 5,125 61 198 -1408
2018-09-24 10:10:13 GMT 48.522583 1.776123 5,325 61 198 -1408
2018-09-24 10:10:10 GMT 48.520840 1.771545 5,400 61 198 -1408
2018-09-24 10:10:00 GMT 48.516884 1.760415 6,600 62 198 -1472
2018-09-24 10:09:57 GMT 48.515579 1.756193 5,675 62 198 -1472
2018-09-24 10:09:52 GMT 48.513298 1.750151 5,850 62 198 -1536
2018-09-24 10:09:48 GMT 48.511574 1.744875 5,950 64 197 -1600
2018-09-24 10:09:42 GMT 48.507477 1.729696 6,250 74 196 -1536
2018-09-24 10:09:36 GMT 48.507477 1.729696 6,275 73 197 -1600
2018-09-24 10:09:32 GMT 48.506561 1.724008 6,375 78 198 -1536
2018-09-24 10:09:26 GMT 48.506012 1.715980 6,500 87 200 -1280
2018-09-24 10:09:15 GMT 48.507153 1.697894 6,725 103 207 -960
2018-09-24 10:09:09 GMT 48.507992 1.692328 6,800 103 207 -1024
2018-09-24 10:09:06 GMT 48.508713 1.688162 6,850 103 209 -1024
2018-09-24 10:09:03 GMT 48.509766 1.682105 7,000 103 211 -896
2018-09-24 10:08:59 GMT 48.510269 1.678514 6,950 103 211 -896
2018-09-24 10:08:56 GMT 48.511093 1.673725 7,000 104 213 -896
2018-09-24 10:08:49 GMT 48.512833 1.663995 7,100 104 215 -704
2018-09-24 10:08:40 GMT 48.515213 1.649992 7,175 104 221 -192
2018-09-24 10:08:29 GMT 48.518188 1.633160 7,175 104 228 -64
2018-09-24 10:08:17 GMT 48.524654 1.597427 7,400 105 238 -768
2018-09-24 10:08:06 GMT 48.524654 1.597427 7,400 105 239 -832
2018-09-24 10:07:56 GMT 48.527962 1.578706 7,575 100 237 -704
2018-09-24 10:07:44 GMT 48.530197 1.560781 7,725 94 234 -704
2018-09-24 10:07:32 GMT 48.528900 1.542030 7,875 66 224 -896
2018-09-24 10:07:24 GMT 48.525650 1.531748 7,975 46 222 -64
2018-09-24 10:07:10 GMT 48.514416 1.517270 8,000 23 219 0
2018-09-24 10:06:58 GMT 48.499611 1.513800 8,000 353 224 64
2018-09-24 10:06:46 GMT 48.490631 1.517522 8,000 337 229 0
2018-09-24 10:06:43 GMT 48.486511 1.520198 8,000 336 229 0
2018-09-24 10:06:38 GMT 48.482574 1.523124 8,000 334 233 0
2018-09-24 10:06:34 GMT 48.477638 1.526521 8,000 335 230 0
2018-09-24 10:06:29 GMT 48.474285 1.529051 8,000 335 230 0
2018-09-24 10:06:23 GMT 48.467628 1.533822 8,000 335 230 0
2018-09-24 10:06:20 GMT 48.465256 1.535628 8,000 335 230 0
2018-09-24 10:06:12 GMT 48.457527 1.541122 8,000 335 230 0
2018-09-24 10:06:09 GMT 48.455063 1.542945 8,000 335 230 0
2018-09-24 10:06:01 GMT 48.446457 1.549284 8,000 335 231 0
2018-09-24 10:05:56 GMT 48.441833 1.552734 8,000 335 232 0
2018-09-24 10:05:51 GMT 48.436157 1.556678 8,000 335 233 0
2018-09-24 10:05:48 GMT 48.434555 1.557875 8,000 335 233 0
2018-09-24 10:05:39 GMT 48.425640 1.564395 8,000 334 233 0
2018-09-24 10:05:36 GMT 48.421967 1.567101 8,000 334 233 0
2018-09-24 10:05:31 GMT 48.417892 1.570129 8,000 334 233 0
2018-09-24 10:05:27 GMT 48.414505 1.572665 8,000 334 232 0
2018-09-24 10:05:22 GMT 48.408974 1.576827 8,000 334 232 0
2018-09-24 10:05:15 GMT 48.401897 1.582031 8,000 334 231 0
2018-09-24 10:05:11 GMT 48.398594 1.584416 8,000 334 231 0
2018-09-24 10:05:06 GMT 48.394356 1.587597 8,000 334 231 0
2018-09-24 10:04:59 GMT 48.387188 1.592945 8,000 335 231 -64
2018-09-24 10:04:54 GMT 48.382671 1.596126 8,000 336 230 -64
2018-09-24 10:04:47 GMT 48.375641 1.601046 8,000 336 230 -64
2018-09-24 10:04:38 GMT 48.366379 1.606750 8,000 342 227 128
2018-09-24 10:04:28 GMT 48.355774 1.610342 8,000 5 224 0
2018-09-24 10:04:23 GMT 48.351746 1.610342 8,000 0 224 -64
2018-09-24 10:04:17 GMT 48.343895 1.609569 8,000 5 224 0
2018-09-24 10:04:14 GMT 48.342403 1.609208 8,000 5 224 0
2018-09-24 10:04:08 GMT 48.336182 1.608370 8,000 5 223 0
2018-09-24 10:04:05 GMT 48.331879 1.607666 8,000 5 223 0
2018-09-24 10:03:52 GMT 48.318466 1.605765 8,000 5 225 0
2018-09-24 10:03:43 GMT 48.309586 1.604708 8,000 4 225 64
2018-09-24 10:03:40 GMT 48.306198 1.604215 8,000 4 224 64
2018-09-24 10:03:33 GMT 48.299057 1.603159 8,000 5 221 -64
2018-09-24 10:03:29 GMT 48.294548 1.602486 8,000 6 220 -320
2018-09-24 10:03:23 GMT 48.288803 1.601609 8,000 6 220 -320
2018-09-24 10:03:15 GMT 48.280491 1.599956 8,100 9 220 -1152
2018-09-24 10:03:05 GMT 48.266052 1.593229 8,400 30 219 -1216
2018-09-24 10:02:52 GMT 48.259415 1.586116 8,525 36 219 -1152
2018-09-24 10:02:49 GMT 48.256165 1.581116 8,650 50 221 -1216
2018-09-24 10:02:40 GMT 48.252182 1.572735 8,875 54 222 -1216
2018-09-24 10:02:35 GMT 48.249626 1.564684 8,900 73 227 -1216
2018-09-24 10:02:27 GMT 48.247856 1.552614 9,050 94 234 -1024
2018-09-24 10:02:22 GMT 48.247810 1.544591 9,150 92 234 -1024
2018-09-24 10:02:18 GMT 48.248154 1.539072 9,200 96 235 -1024
2018-09-24 10:02:12 GMT 48.250168 1.527100 9,325 107 240 -1088
2018-09-24 10:02:07 GMT 48.252731 1.518719 9,425 114 243 -1152
2018-09-24 10:02:00 GMT 48.260742 1.497169 9,600 118 246 -1088
2018-09-24 10:01:51 GMT 48.260742 1.497169 9,700 118 246 -1088
2018-09-24 10:01:41 GMT 48.266144 1.482309 9,950 118 248 -832
2018-09-24 10:01:32 GMT 48.271412 1.467759 10,000 118 251 -192
2018-09-24 10:01:22 GMT 48.277184 1.452219 10,000 118 251 0
2018-09-24 10:01:18 GMT 48.279510 1.445688 10,000 118 252 0
2018-09-24 10:01:11 GMT 48.282909 1.436246 10,000 118 251 0
2018-09-24 10:01:07 GMT 48.285782 1.428434 10,000 118 251 0
2018-09-24 10:01:01 GMT 48.289055 1.419549 10,000 118 255 64
2018-09-24 10:00:55 GMT 48.292191 1.410687 10,000 118 255 64
2018-09-24 10:00:49 GMT 48.295166 1.402447 10,000 118 258 0
2018-09-24 10:00:45 GMT 48.299103 1.392306 10,000 118 262 0
2018-09-24 10:00:38 GMT 48.301987 1.383644 10,000 118 265 -64
2018-09-24 10:00:30 GMT 48.306744 1.371050 10,000 118 272 64
2018-09-24 10:00:19 GMT 48.313156 1.353431 9,975 118 279 0
2018-09-24 10:00:15 GMT 48.316010 1.345392 9,975 118 285 -64
2018-09-24 10:00:08 GMT 48.320477 1.333104 10,000 118 287 0
2018-09-24 09:59:59 GMT 48.326530 1.316769 10,000 118 287 0
2018-09-24 09:59:49 GMT 48.332722 1.299712 10,000 118 289 0
2018-09-24 09:59:46 GMT 48.335129 1.292936 10,000 118 289 0
2018-09-24 09:59:38 GMT 48.339432 1.281316 10,000 118 290 0
2018-09-24 09:59:27 GMT 48.346619 1.261456 10,000 118 292 0
2018-09-24 09:59:16 GMT 48.354275 1.240154 10,000 118 293 0
2018-09-24 09:59:06 GMT 48.360329 1.223602 10,000 118 293 0
2018-09-24 09:59:03 GMT 48.362640 1.217229 10,000 118 293 0
2018-09-24 09:58:57 GMT 48.365913 1.208279 10,000 118 292 0
2018-09-24 09:58:52 GMT 48.369778 1.197799 10,000 118 291 64
2018-09-24 09:58:44 GMT 48.374199 1.185367 10,000 118 291 0
2018-09-24 09:58:40 GMT 48.377132 1.177633 10,000 118 291 -64
2018-09-24 09:58:33 GMT 48.384018 1.158353 10,000 118 292 0
2018-09-24 09:58:29 GMT 48.384018 1.158353 10,000 118 292 0
2018-09-24 09:58:26 GMT 48.386398 1.151874 10,000 118 292 0
2018-09-24 09:58:19 GMT 48.390774 1.140048 10,000 118 292 0
2018-09-24 09:58:16 GMT 48.393127 1.133212 10,000 118 292 0
2018-09-24 09:58:08 GMT 48.397846 1.120244 10,000 118 293 0
2018-09-24 09:58:05 GMT 48.399719 1.115324 10,000 118 294 64
2018-09-24 09:58:02 GMT 48.401642 1.110042 10,000 118 294 0
2018-09-24 09:57:57 GMT 48.405109 1.100151 9,975 118 302 0
2018-09-24 09:57:53 GMT 48.407455 1.093844 9,975 118 302 0
2018-09-24 09:57:50 GMT 48.409424 1.088492 10,000 118 306 64
2018-09-24 09:57:47 GMT 48.412045 1.081647 10,000 118 311 0
2018-09-24 09:57:44 GMT 48.413681 1.076871 9,975 118 310 0
2018-09-24 09:57:37 GMT 48.419540 1.060674 9,975 118 319 0
2018-09-24 09:57:33 GMT 48.421280 1.055885 9,975 118 320 0
2018-09-24 09:57:26 GMT 48.427269 1.039292 9,975 118 338 64
2018-09-24 09:57:21 GMT 48.430389 1.030546 9,975 118 333 64
2018-09-24 09:57:18 GMT 48.432312 1.025250 9,950 118 339 0
2018-09-24 09:57:13 GMT 48.435974 1.014686 9,975 118 342 -192
2018-09-24 09:57:07 GMT 48.440769 1.001201 10,000 118 344 -320
2018-09-24 09:57:02 GMT 48.444260 0.991516 10,075 117 349 -704
2018-09-24 09:56:59 GMT 48.446960 0.983699 10,125 117 351 -1152
2018-09-24 09:56:52 GMT 48.451660 0.970194 10,250 117 353 -1536
2018-09-24 09:56:48 GMT 48.454643 0.961737 10,350 117 354 -1536
2018-09-24 09:56:43 GMT 48.459206 0.948727 10,550 117 356 -1728
2018-09-24 09:56:39 GMT 48.462021 0.940599 10,625 117 356 -1856
2018-09-24 09:56:29 GMT 48.473969 0.905597 11,050 117 361 -1216
2018-09-24 09:56:21 GMT 48.475449 0.901457 11,100 117 361 -1152
2018-09-24 09:56:16 GMT 48.479595 0.889314 11,200 117 367 -832
2018-09-24 09:56:11 GMT 48.483353 0.878413 11,250 118 370 -896
2018-09-24 09:56:08 GMT 48.485962 0.871089 11,375 119 375 -1280
2018-09-24 09:56:01 GMT 48.491928 0.854621 11,450 119 375 -1344
2018-09-24 09:55:51 GMT 48.500610 0.832637 11,700 121 379 -1664
2018-09-24 09:55:48 GMT 48.502869 0.827083 11,775 121 380 -1664
2018-09-24 09:55:38 GMT 48.512039 0.804026 12,050 120 382 -1664
2018-09-24 09:55:35 GMT 48.515259 0.796016 12,150 120 383 -1728
2018-09-24 09:55:28 GMT 48.521118 0.781186 12,275 120 384 -1792
2018-09-24 09:55:23 GMT 48.527729 0.763767 12,550 118 386 -1728
2018-09-24 09:55:18 GMT 48.530411 0.756437 13,050 108 386 -1920
2018-09-24 09:55:14 GMT 48.533844 0.746366 12,775 115 386 -1856
2018-09-24 09:55:10 GMT 48.537048 0.735732 12,900 112 386 -1984
2018-09-24 09:55:05 GMT 48.539833 0.725748 13,050 111 385 -1984
2018-09-24 09:54:59 GMT 48.543182 0.709052 13,250 104 385 -1792
2018-09-24 09:54:56 GMT 48.544533 0.701390 13,325 103 386 -1664
2018-09-24 09:54:49 GMT 48.548676 0.673124 13,650 102 387 -1728
2018-09-24 09:54:46 GMT 48.548676 0.673124 13,625 102 387 -1728
2018-09-24 09:54:39 GMT 48.551285 0.654672 13,825 102 389 -1664
2018-09-24 09:54:35 GMT 48.552612 0.645376 13,925 102 390 -1600
2018-09-24 09:54:28 GMT 48.555359 0.626784 14,075 102 392 -1472
2018-09-24 09:54:24 GMT 48.558266 0.606416 14,275 102 395 -1472
2018-09-24 09:54:17 GMT 48.559616 0.597165 14,375 102 396 -1728
2018-09-24 09:54:13 GMT 48.560852 0.588543 14,475 102 396 -2048
2018-09-24 09:54:10 GMT 48.562088 0.580092 14,625 102 400 -896
2018-09-24 09:54:07 GMT 48.563644 0.569106 14,975 124 406 0
2018-09-24 09:54:03 GMT 48.565109 0.559176 14,850 102 398 -1728
2018-09-24 09:53:56 GMT 48.567581 0.541851 14,950 102 401 -640
2018-09-24 09:53:49 GMT 48.571198 0.518963 15,000 103 404 0
2018-09-24 09:53:46 GMT 48.572021 0.513470 15,000 103 404 0
2018-09-24 09:53:41 GMT 48.574219 0.498822 15,000 106 404 0
2018-09-24 09:53:36 GMT 48.577148 0.482342 15,000 105 405 0
2018-09-24 09:53:28 GMT 48.580994 0.466074 15,000 112 406 0
2018-09-24 09:53:25 GMT 48.588547 0.443608 15,000 118 406 0
2018-09-24 09:53:20 GMT 48.588547 0.443608 15,000 121 406 64
2018-09-24 09:53:17 GMT 48.591599 0.436417 14,975 128 407 0
2018-09-24 09:53:14 GMT 48.596146 0.427058 14,975 128 407 0
2018-09-24 09:53:10 GMT 48.599808 0.420368 14,975 131 407 0
2018-09-24 09:53:05 GMT 48.605797 0.410831 14,975 139 408 0
2018-09-24 09:52:59 GMT 48.614456 0.399700 14,975 149 409 -64
2018-09-24 09:52:55 GMT 48.622421 0.391212 15,000 149 409 -64
2018-09-24 09:52:49 GMT 48.631588 0.383148 15,000 153 408 0
2018-09-24 09:52:44 GMT 48.638763 0.378113 15,000 161 407 0
2018-09-24 09:52:36 GMT 48.655235 0.369777 14,975 172 405 0
2018-09-24 09:52:25 GMT 48.672600 0.365151 14,975 175 404 0
2018-09-24 09:52:22 GMT 48.679504 0.364591 14,975 188 399 0
2018-09-24 09:52:17 GMT 48.689255 0.364943 14,975 185 401 64
2018-09-24 09:52:13 GMT 48.696060 0.366018 14,975 189 399 0
2018-09-24 09:52:05 GMT 48.715939 0.373607 15,000 200 395 0
2018-09-24 09:51:55 GMT 48.728668 0.382197 15,000 210 390 -64
2018-09-24 09:51:50 GMT 48.735306 0.388113 15,000 214 388 -64
2018-09-24 09:51:43 GMT 48.745239 0.398607 15,000 277 345 -64
2018-09-24 09:51:37 GMT 48.757370 0.414806 15,000 233 376 0
2018-09-24 09:51:34 GMT 48.757370 0.414806 15,000 228 380 -64
2018-09-24 09:51:23 GMT 48.769318 0.435721 15,000 234 376 0
2018-09-24 09:51:17 GMT 48.775223 0.448961 15,000 242 372 192
2018-09-24 09:51:13 GMT 48.778786 0.457884 14,975 242 371 256
2018-09-24 09:51:07 GMT 48.783161 0.471545 14,975 246 369 128
2018-09-24 09:51:03 GMT 48.787258 0.491638 14,950 259 363 -64
2018-09-24 09:51:00 GMT 48.787258 0.491638 14,975 260 361 -64
2018-09-24 09:50:52 GMT 48.788746 0.515851 14,975 269 357 -192
2018-09-24 09:50:45 GMT 48.787582 0.533964 15,000 277 351 0
2018-09-24 09:50:42 GMT 48.787399 0.536076 15,000 277 349 0
2018-09-24 09:50:34 GMT 48.786209 0.552274 15,000 277 345 0
2018-09-24 09:50:31 GMT 48.785488 0.561893 15,000 277 343 64
2018-09-24 09:50:23 GMT 48.783783 0.582487 15,000 277 342 64
2018-09-24 09:50:19 GMT 48.783279 0.589388 15,000 277 343 64
2018-09-24 09:50:16 GMT 48.782776 0.595797 14,975 277 343 64
2018-09-24 09:50:10 GMT 48.781586 0.610938 14,975 277 350 -128
2018-09-24 09:50:05 GMT 48.780533 0.623333 14,975 277 350 -128
2018-09-24 09:49:59 GMT 48.779526 0.636784 15,000 277 352 0
2018-09-24 09:49:56 GMT 48.778831 0.646965 15,000 277 350 0
2018-09-24 09:49:49 GMT 48.777435 0.663300 15,000 277 346 0
2018-09-24 09:49:45 GMT 48.776924 0.670744 15,000 277 346 0
2018-09-24 09:49:41 GMT 48.776047 0.680941 15,000 278 343 0
2018-09-24 09:49:38 GMT 48.775223 0.691787 15,000 278 341 64
2018-09-24 09:49:31 GMT 48.773849 0.706883 14,975 278 341 -64
2018-09-24 09:49:25 GMT 48.772640 0.719677 14,975 279 347 -128
2018-09-24 09:49:19 GMT 48.771244 0.734638 15,000 279 349 0
2018-09-24 09:49:16 GMT 48.770405 0.742734 15,000 281 350 128
2018-09-24 09:49:10 GMT 48.768543 0.756177 15,000 284 349 0
2018-09-24 09:49:07 GMT 48.767147 0.763333 15,000 290 347 0
2018-09-24 09:49:02 GMT 48.764191 0.774184 15,000 303 343 0
2018-09-24 09:48:57 GMT 48.759842 0.785804 15,000 307 343 0
2018-09-24 09:48:49 GMT 48.751087 0.801930 15,000 313 342 0
2018-09-24 09:48:46 GMT 48.749596 0.804098 15,000 321 342 0
2018-09-24 09:48:39 GMT 48.739868 0.815157 14,975 330 342 0
2018-09-24 09:48:32 GMT 48.730232 0.822384 14,975 89 396 -64
2018-09-24 09:48:28 GMT 48.723854 0.825709 14,975 347 347 0
2018-09-24 09:48:23 GMT 48.716080 0.828200 14,975 350 348 0
2018-09-24 09:48:17 GMT 48.707561 0.829106 14,975 1 354 0
2018-09-24 09:48:13 GMT 48.699505 0.828311 14,975 7 355 0
2018-09-24 09:48:06 GMT 48.689499 0.825348 14,975 16 359 0
2018-09-24 09:48:02 GMT 48.682190 0.821156 14,975 20 360 0
2018-09-24 09:47:57 GMT 48.675346 0.815952 14,975 32 364 64
2018-09-24 09:47:54 GMT 48.670971 0.811615 14,975 45 368 0
2018-09-24 09:47:51 GMT 48.666550 0.806227 14,975 41 366 0
2018-09-24 09:47:46 GMT 48.661148 0.798460 14,975 48 368 0
2018-09-24 09:47:42 GMT 48.655281 0.786968 14,975 53 371 -64
2018-09-24 09:47:35 GMT 48.650482 0.773621 14,975 64 376 0
2018-09-24 09:47:31 GMT 48.647881 0.763261 14,975 72 379 64
2018-09-24 09:47:26 GMT 48.645767 0.749887 14,975 81 383 128
2018-09-24 09:47:21 GMT 48.644714 0.733265 14,975 95 397 0
2018-09-24 09:47:18 GMT 48.644714 0.729434 14,975 91 393 -256
2018-09-24 09:47:10 GMT 48.645878 0.704571 15,000 95 397 0
2018-09-24 09:47:06 GMT 48.646576 0.694813 15,000 95 398 0
2018-09-24 09:47:03 GMT 48.647087 0.685055 15,000 94 398 0
2018-09-24 09:47:00 GMT 48.647919 0.670025 15,000 94 398 0
2018-09-24 09:46:53 GMT 48.648483 0.660408 15,000 94 398 0
2018-09-24 09:46:50 GMT 48.648811 0.652169 15,000 93 398 -64
2018-09-24 09:46:44 GMT 48.649521 0.636221 15,000 92 398 0
2018-09-24 09:46:37 GMT 48.650024 0.612629 15,000 90 397 0
2018-09-24 09:46:34 GMT 48.650208 0.608512 15,000 90 397 0
2018-09-24 09:46:28 GMT 48.650208 0.591572 15,000 90 396 0
2018-09-24 09:46:24 GMT 48.650208 0.579881 15,000 89 396 -64
2018-09-24 09:46:19 GMT 48.650208 0.563824 15,025 90 396 0
2018-09-24 09:46:14 GMT 48.650021 0.550184 15,025 89 396 -64
2018-09-24 09:46:08 GMT 48.649883 0.534427 15,025 90 396 64
2018-09-24 09:46:01 GMT 48.650345 0.516710 15,000 95 398 64
2018-09-24 09:45:58 GMT 48.651306 0.505230 15,000 101 400 0
2018-09-24 09:45:52 GMT 48.653366 0.490934 15,000 106 403 64
2018-09-24 09:45:47 GMT 48.656727 0.477182 15,000 112 405 0
2018-09-24 09:45:43 GMT 48.659889 0.467208 15,000 121 407 0
2018-09-24 09:45:40 GMT 48.664124 0.457130 15,000 127 407 0
2018-09-24 09:45:36 GMT 48.667198 0.451235 15,000 130 408 64
2018-09-24 09:45:32 GMT 48.672409 0.442622 15,000 138 408 0
2018-09-24 09:45:27 GMT 48.680000 0.432876 15,000 145 408 0
2018-09-24 09:45:21 GMT 48.688286 0.424853 15,000 151 408 0
2018-09-24 09:45:12 GMT 48.707092 0.413939 15,000 167 405 0
2018-09-24 09:45:04 GMT 48.723900 0.411481 15,000 185 400 0
2018-09-24 09:44:55 GMT 48.739426 0.414593 15,000 193 397 64
2018-09-24 09:44:51 GMT 48.743683 0.416495 14,975 199 393 128
2018-09-24 09:44:44 GMT 48.756626 0.425214 14,975 274 353 -128
2018-09-24 09:44:41 GMT 48.770554 0.441707 14,975 219 380 0
2018-09-24 09:44:33 GMT 48.770554 0.441707 14,975 224 377 -64
2018-09-24 09:44:29 GMT 48.774124 0.447834 14,975 243 366 0
2018-09-24 09:44:24 GMT 48.780136 0.460920 14,975 244 365 0
2018-09-24 09:44:20 GMT 48.782928 0.469160 14,975 247 363 64
2018-09-24 09:44:13 GMT 48.786980 0.486579 14,975 257 359 128
2018-09-24 09:44:09 GMT 48.788143 0.494168 14,975 262 357 64
2018-09-24 09:44:01 GMT 48.789276 0.515794 15,000 276 352 0
2018-09-24 09:43:58 GMT 48.788956 0.522696 15,000 275 353 -64
2018-09-24 09:43:53 GMT 48.788094 0.535222 15,000 277 352 0
2018-09-24 09:43:49 GMT 48.787395 0.544257 15,000 277 352 0
2018-09-24 09:43:39 GMT 48.783627 0.593334 15,000 277 352 0
2018-09-24 09:43:30 GMT 48.783627 0.593334 15,000 277 352 0
2018-09-24 09:43:22 GMT 48.782272 0.609671 15,000 277 352 0
2018-09-24 09:43:18 GMT 48.781391 0.620077 15,000 277 352 0
2018-09-24 09:43:15 GMT 48.780716 0.630235 15,000 277 352 0
2018-09-24 09:43:08 GMT 48.779484 0.645808 15,000 277 352 0
2018-09-24 09:43:02 GMT 48.777992 0.663083 15,000 277 352 0
2018-09-24 09:42:58 GMT 48.777481 0.670383 15,000 278 351 0
2018-09-24 09:42:51 GMT 48.776047 0.687420 15,000 278 351 0
2018-09-24 09:42:47 GMT 48.775223 0.696223 15,000 279 350 128
2018-09-24 09:42:40 GMT 48.773663 0.713172 15,000 279 350 0
2018-09-24 09:42:37 GMT 48.772964 0.721484 15,000 279 349 0
2018-09-24 09:42:34 GMT 48.771835 0.732281 15,000 279 349 128
2018-09-24 09:42:30 GMT 48.770279 0.746296 14,975 293 346 0
2018-09-24 09:42:26 GMT 48.770279 0.746296 15,000 281 349 128
2018-09-24 09:42:21 GMT 48.767899 0.761648 15,000 294 345 0
2018-09-24 09:42:14 GMT 48.764587 0.773958 14,975 301 344 0
2018-09-24 09:42:09 GMT 48.758972 0.788058 14,975 304 345 0
2018-09-24 09:42:03 GMT 48.754345 0.796726 14,975 311 344 0
2018-09-24 09:41:58 GMT 48.749226 0.804387 14,975 321 344 -64
2018-09-24 09:41:51 GMT 48.739243 0.815312 15,000 332 345 -64
2018-09-24 09:41:48 GMT 48.734482 0.819115 15,000 338 346 0
2018-09-24 09:41:44 GMT 48.730091 0.822023 15,000 341 346 64
2018-09-24 09:41:39 GMT 48.720154 0.826651 15,000 356 349 0
2018-09-24 09:41:35 GMT 48.714638 0.827878 15,000 357 348 0
2018-09-24 09:41:30 GMT 48.707977 0.828623 15,000 357 348 0
2018-09-24 09:41:27 GMT 48.702484 0.828482 15,000 5 351 0
2018-09-24 09:41:22 GMT 48.694061 0.826649 15,000 9 352 0
2018-09-24 09:41:16 GMT 48.683445 0.821879 14,975 23 359 0
2018-09-24 09:41:11 GMT 48.678085 0.817918 15,000 29 364 0
2018-09-24 09:41:07 GMT 48.671127 0.811439 15,000 36 367 0
2018-09-24 09:41:04 GMT 48.667053 0.806791 15,000 43 372 64
2018-09-24 09:40:59 GMT 48.661751 0.798894 14,975 48 374 128
2018-09-24 09:40:56 GMT 48.657749 0.791738 14,975 59 379 128
2018-09-24 09:40:53 GMT 48.655235 0.786245 14,975 56 377 128
2018-09-24 09:40:50 GMT 48.651417 0.775982 14,975 62 381 128
2018-09-24 09:40:43 GMT 48.647964 0.762564 14,950 75 387 64
2018-09-24 09:40:39 GMT 48.645969 0.750395 14,950 79 388 0
2018-09-24 09:40:35 GMT 48.645088 0.738252 14,975 87 393 -256
2018-09-24 09:40:29 GMT 48.645035 0.721858 15,000 94 397 -64
2018-09-24 09:40:22 GMT 48.645878 0.705149 15,000 95 397 0
2018-09-24 09:40:19 GMT 48.646545 0.694956 15,000 95 397 0
2018-09-24 09:40:12 GMT 48.647598 0.677279 15,000 94 397 0
2018-09-24 09:40:07 GMT 48.648468 0.660236 15,000 94 396 0
2018-09-24 09:40:02 GMT 48.648972 0.648053 15,000 93 396 0
2018-09-24 09:39:57 GMT 48.649509 0.634171 15,000 92 396 0
2018-09-24 09:39:50 GMT 48.650024 0.617136 15,000 91 396 0
2018-09-24 09:39:44 GMT 48.650208 0.597346 15,000 90 396 0
2018-09-24 09:39:41 GMT 48.650394 0.591166 15,000 89 396 -64
2018-09-24 09:39:36 GMT 48.650208 0.574247 15,000 89 396 -64
2018-09-24 09:39:28 GMT 48.650024 0.553824 15,025 98 399 64
2018-09-24 09:39:25 GMT 48.650024 0.545725 15,025 89 396 0
2018-09-24 09:39:22 GMT 48.650021 0.534210 15,000 90 396 64
2018-09-24 09:39:12 GMT 48.651535 0.503258 15,000 97 399 64
2018-09-24 09:39:09 GMT 48.651535 0.503258 15,000 106 402 0
2018-09-24 09:39:03 GMT 48.654510 0.484877 15,000 111 403 0
2018-09-24 09:38:59 GMT 48.657532 0.473468 15,000 119 405 0
2018-09-24 09:38:53 GMT 48.662685 0.459474 15,000 123 406 0
2018-09-24 09:38:49 GMT 48.668060 0.448749 15,000 137 407 0
2018-09-24 09:38:40 GMT 48.679024 0.433165 15,000 157 407 0
2018-09-24 09:38:36 GMT 48.695316 0.418998 15,000 152 407 0
2018-09-24 09:38:30 GMT 48.709442 0.412621 15,000 170 404 0
2018-09-24 09:38:23 GMT 48.709442 0.412621 15,000 171 403 0
2018-09-24 09:38:20 GMT 48.713150 0.411706 15,000 171 403 0
2018-09-24 09:38:17 GMT 48.719524 0.410831 15,000 185 399 64
2018-09-24 09:38:11 GMT 48.729996 0.411353 14,975 190 396 64
2018-09-24 09:38:07 GMT 48.737595 0.413325 14,975 194 394 0
2018-09-24 09:38:04 GMT 48.748711 0.418709 14,975 203 390 -64
2018-09-24 09:38:00 GMT 48.748711 0.418709 14,975 206 388 0
2018-09-24 09:37:57 GMT 48.754486 0.422757 14,975 210 385 0
2018-09-24 09:37:49 GMT 48.765888 0.434683 14,975 222 378 0
2018-09-24 09:37:46 GMT 48.769798 0.440248 14,975 225 375 0
2018-09-24 09:37:39 GMT 48.777481 0.454632 14,975 239 368 0
2018-09-24 09:37:36 GMT 48.779903 0.460342 14,975 241 366 0
2018-09-24 09:37:29 GMT 48.785023 0.477255 14,975 253 361 64
2018-09-24 09:37:26 GMT 48.786606 0.485061 14,975 256 359 128
2018-09-24 09:37:18 GMT 48.788727 0.504174 14,975 268 355 -192
2018-09-24 09:37:15 GMT 48.788910 0.510512 14,975 271 354 -192
2018-09-24 09:37:07 GMT 48.788094 0.529801 15,000 277 351 0
2018-09-24 09:37:01 GMT 48.786713 0.546640 15,000 277 351 0
2018-09-24 09:36:58 GMT 48.786209 0.554387 15,000 277 351 0
2018-09-24 09:36:47 GMT 48.784138 0.579818 15,000 277 351 0
2018-09-24 09:36:40 GMT 48.781906 0.607488 15,000 277 352 0
2018-09-24 09:36:36 GMT 48.781906 0.607488 15,000 277 352 0
2018-09-24 09:36:31 GMT 48.780739 0.622173 15,000 277 352 0
2018-09-24 09:36:25 GMT 48.779716 0.634316 15,000 277 352 0
2018-09-24 09:36:18 GMT 48.778107 0.654391 15,000 287 349 0
2018-09-24 09:36:15 GMT 48.777946 0.657445 15,000 277 352 -64
2018-09-24 09:36:08 GMT 48.776230 0.677209 15,000 278 352 0
2018-09-24 09:36:05 GMT 48.775543 0.686082 15,000 278 352 0
2018-09-24 09:35:56 GMT 48.773849 0.705727 15,000 278 352 0
2018-09-24 09:35:53 GMT 48.771469 0.730380 15,000 279 351 0
2018-09-24 09:35:46 GMT 48.771469 0.730380 15,000 279 351 0
2018-09-24 09:35:43 GMT 48.770462 0.739535 15,000 280 351 128
2018-09-24 09:35:34 GMT 48.767754 0.758201 15,000 288 349 0
2018-09-24 09:35:30 GMT 48.765518 0.767564 15,000 295 348 0
2018-09-24 09:35:21 GMT 48.757137 0.789498 15,000 314 346 0
2018-09-24 09:35:18 GMT 48.755585 0.792424 15,000 312 346 0
2018-09-24 09:35:14 GMT 48.751740 0.798692 15,000 334 346 0
2018-09-24 09:35:10 GMT 48.737213 0.815301 15,000 327 345 0
2018-09-24 09:35:03 GMT 48.737213 0.815301 15,000 333 346 0
2018-09-24 09:34:54 GMT 48.724274 0.823613 15,000 351 348 0
2018-09-24 09:34:50 GMT 48.717056 0.826071 15,000 350 348 0
2018-09-24 09:34:43 GMT 48.706909 0.827589 15,000 27 363 64
2018-09-24 09:34:38 GMT 48.697830 0.826793 15,000 10 355 0
2018-09-24 09:34:33 GMT 48.689987 0.824327 15,000 27 363 64
2018-09-24 09:34:30 GMT 48.684311 0.821580 15,000 20 360 0
2018-09-24 09:34:22 GMT 48.673855 0.813928 14,975 34 366 64
2018-09-24 09:34:19 GMT 48.669022 0.809185 14,975 37 367 64
2018-09-24 09:34:13 GMT 48.661148 0.798762 14,975 49 373 64
2018-09-24 09:34:08 GMT 48.656212 0.789642 14,975 55 376 64
2018-09-24 09:34:02 GMT 48.649742 0.773018 14,950 78 390 0
2018-09-24 09:33:57 GMT 48.647461 0.763902 14,950 75 389 0
2018-09-24 09:33:54 GMT 48.645832 0.755961 14,950 76 390 0
2018-09-24 09:33:51 GMT 48.644897 0.748268 15,000 95 397 0
2018-09-24 09:33:48 GMT 48.644028 0.735239 14,975 88 396 -256
2018-09-24 09:33:41 GMT 48.644157 0.718520 15,000 93 397 -64
2018-09-24 09:33:36 GMT 48.645039 0.704787 15,000 95 397 0
2018-09-24 09:33:31 GMT 48.645905 0.691223 15,000 95 397 0
2018-09-24 09:33:25 GMT 48.646900 0.675659 15,000 94 397 0
2018-09-24 09:33:19 GMT 48.647781 0.659884 15,000 94 397 0
2018-09-24 09:33:15 GMT 48.648468 0.644954 15,000 93 397 0
2018-09-24 09:33:11 GMT 48.648811 0.636773 15,000 92 397 0
2018-09-24 09:33:03 GMT 48.649509 0.613283 15,000 91 396 128
2018-09-24 09:32:59 GMT 48.649696 0.603670 15,000 91 396 128
2018-09-24 09:32:53 GMT 48.649841 0.586994 15,000 90 397 -64
2018-09-24 09:32:50 GMT 48.650021 0.578011 15,025 97 398 -64
2018-09-24 09:32:47 GMT 48.650021 0.569410 15,000 90 396 -64
2018-09-24 09:32:41 GMT 48.650024 0.551147 15,025 90 396 0
2018-09-24 09:32:36 GMT 48.650208 0.523893 15,000 106 401 64
2018-09-24 09:32:30 GMT 48.650208 0.523893 15,000 91 396 128
2018-09-24 09:32:26 GMT 48.650719 0.511876 15,000 97 398 -64
2018-09-24 09:32:19 GMT 48.653374 0.490048 15,000 106 401 64
2018-09-24 09:32:12 GMT 48.658264 0.470229 15,000 112 403 0
2018-09-24 09:32:08 GMT 48.660553 0.464172 15,000 121 404 0
2018-09-24 09:32:00 GMT 48.671448 0.442693 15,000 131 405 0
2018-09-24 09:31:57 GMT 48.673344 0.439670 15,000 146 405 0
2018-09-24 09:31:52 GMT 48.681118 0.430057 15,000 150 405 0
2018-09-24 09:31:49 GMT 48.685215 0.426082 15,000 158 405 0
2018-09-24 09:31:42 GMT 48.696854 0.417551 15,000 226 373 0
2018-09-24 09:31:38 GMT 48.703720 0.414241 15,000 164 403 0
2018-09-24 09:31:28 GMT 48.722878 0.410614 14,975 183 398 128
2018-09-24 09:31:22 GMT 48.736656 0.412855 14,975 226 373 0
2018-09-24 09:31:18 GMT 48.741032 0.414662 14,975 197 390 64
2018-09-24 09:31:11 GMT 48.755322 0.423913 14,975 212 380 -64
2018-09-24 09:31:07 GMT 48.757965 0.426565 14,975 214 378 -64
2018-09-24 09:31:00 GMT 48.769547 0.440932 14,975 229 371 0
2018-09-24 09:30:56 GMT 48.772797 0.446566 14,975 231 370 0
2018-09-24 09:30:51 GMT 48.778610 0.459383 14,975 248 363 64
2018-09-24 09:30:46 GMT 48.781719 0.468437 14,975 257 359 64
2018-09-24 09:30:38 GMT 48.786484 0.490793 14,975 257 359 64
2018-09-24 09:30:35 GMT 48.786942 0.494385 14,975 266 357 -192
2018-09-24 09:30:31 GMT 48.787537 0.503709 14,975 271 356 -256
2018-09-24 09:30:26 GMT 48.787720 0.515442 14,975 277 351 0
2018-09-24 09:30:23 GMT 48.787216 0.524527 15,000 275 354 -128
2018-09-24 09:30:20 GMT 48.786697 0.532042 15,000 277 353 0
2018-09-24 09:30:14 GMT 48.785522 0.547274 15,000 277 352 64
2018-09-24 09:30:10 GMT 48.783783 0.569176 15,000 279 350 0
2018-09-24 09:30:05 GMT 48.783783 0.569176 15,000 277 351 0
2018-09-24 09:30:01 GMT 48.782787 0.581336 15,000 277 351 0
2018-09-24 09:29:56 GMT 48.782089 0.590154 15,000 277 351 0
2018-09-24 09:29:53 GMT 48.781403 0.598544 15,000 277 351 0
2018-09-24 09:29:49 GMT 48.780693 0.606922 15,000 278 351 -64
2018-09-24 09:29:46 GMT 48.779858 0.616825 15,000 277 351 0
2018-09-24 09:29:42 GMT 48.779156 0.625426 15,000 290 348 0
2018-09-24 09:29:35 GMT 48.777805 0.641471 15,000 278 351 -64
2018-09-24 09:29:32 GMT 48.776924 0.651084 15,000 278 351 -64
2018-09-24 09:29:26 GMT 48.775726 0.663898 15,000 278 351 -64
2018-09-24 09:29:23 GMT 48.774857 0.673828 15,000 279 350 0
2018-09-24 09:29:20 GMT 48.774548 0.677177 15,000 279 350 0
2018-09-24 09:29:17 GMT 48.773010 0.691705 15,000 279 350 128
2018-09-24 09:29:14 GMT 48.770645 0.709675 15,000 280 350 128
2018-09-24 09:29:07 GMT 48.770645 0.709675 15,000 288 348 0
2018-09-24 09:29:03 GMT 48.768906 0.718196 15,000 290 348 0
2018-09-24 09:28:56 GMT 48.761002 0.740710 15,000 301 345 0
2018-09-24 09:28:53 GMT 48.761002 0.740710 15,000 327 346 0
2018-09-24 09:28:49 GMT 48.757465 0.747504 15,000 348 350 0
2018-09-24 09:28:46 GMT 48.752838 0.755028 15,000 348 350 0
2018-09-24 09:28:43 GMT 48.751087 0.757334 15,000 77 388 0
2018-09-24 09:28:38 GMT 48.743912 0.765803 15,000 328 347 0
2018-09-24 09:28:33 GMT 48.737595 0.771508 15,000 350 351 64
2018-09-24 09:28:30 GMT 48.732285 0.775100 15,000 338 348 0
2018-09-24 09:28:26 GMT 48.726929 0.777846 15,000 345 349 0
2018-09-24 09:28:19 GMT 48.715897 0.781297 15,000 0 353 64
2018-09-24 09:28:15 GMT 48.709122 0.782072 15,000 0 353 64
2018-09-24 09:28:12 GMT 48.704041 0.781790 15,000 6 355 64
2018-09-24 09:28:08 GMT 48.697784 0.780608 14,975 8 355 64
2018-09-24 09:28:03 GMT 48.689255 0.777494 14,975 18 360 0
2018-09-24 09:27:59 GMT 48.682892 0.773973 14,975 25 363 0
2018-09-24 09:27:55 GMT 48.676834 0.769188 14,975 33 367 0
2018-09-24 09:27:52 GMT 48.673298 0.765718 14,975 35 368 0
2018-09-24 09:27:49 GMT 48.667107 0.758346 14,975 45 373 64
2018-09-24 09:27:46 GMT 48.664127 0.754009 14,975 48 375 64
2018-09-24 09:27:41 GMT 48.659683 0.746296 14,975 52 376 64
2018-09-24 09:27:35 GMT 48.653931 0.733410 14,975 65 383 64
2018-09-24 09:27:31 GMT 48.650848 0.723267 14,950 68 384 64
2018-09-24 09:27:28 GMT 48.648468 0.712773 14,975 74 387 64
2018-09-24 09:27:23 GMT 48.646683 0.701083 14,950 80 390 -128
2018-09-24 09:27:18 GMT 48.645786 0.689681 14,975 84 392 -192
2018-09-24 09:27:15 GMT 48.645584 0.677068 14,975 90 396 -128
2018-09-24 09:27:10 GMT 48.645905 0.665236 15,000 93 396 0
2018-09-24 09:27:06 GMT 48.646225 0.655377 15,000 93 397 -64
2018-09-24 09:27:03 GMT 48.646763 0.644290 15,000 93 397 0
2018-09-24 09:27:00 GMT 48.646950 0.639592 15,000 92 397 0
2018-09-24 09:26:56 GMT 48.647274 0.627088 15,000 92 397 -64
2018-09-24 09:26:51 GMT 48.647602 0.612054 15,000 91 397 -64
2018-09-24 09:26:45 GMT 48.647785 0.596659 15,000 90 397 -64
2018-09-24 09:26:39 GMT 48.647785 0.580179 15,000 97 398 0
2018-09-24 09:26:29 GMT 48.647644 0.552345 15,025 88 395 0
2018-09-24 09:26:25 GMT 48.647461 0.542089 15,000 88 395 64
2018-09-24 09:26:22 GMT 48.647274 0.533921 15,000 89 395 64
2018-09-24 09:26:19 GMT 48.647278 0.524245 15,000 92 396 64
2018-09-24 09:26:14 GMT 48.649418 0.495035 15,000 170 401 64
2018-09-24 09:26:08 GMT 48.649418 0.495035 15,000 101 400 64
2018-09-24 09:26:04 GMT 48.652130 0.481145 15,000 130 407 -64
2018-09-24 09:25:59 GMT 48.655197 0.470299 15,000 117 405 0
2018-09-24 09:25:53 GMT 48.665058 0.447476 15,000 130 407 -64
2018-09-24 09:25:47 GMT 48.668224 0.442272 15,000 132 408 -64
2018-09-24 09:25:42 GMT 48.676697 0.431069 15,000 143 408 0
2018-09-24 09:25:36 GMT 48.684471 0.423335 15,000 150 407 0
2018-09-24 09:25:31 GMT 48.694572 0.416179 14,975 170 401 64
2018-09-24 09:25:28 GMT 48.698063 0.414300 15,000 163 404 64
2018-09-24 09:25:25 GMT 48.702576 0.412480 14,975 166 403 64
2018-09-24 09:25:21 GMT 48.711098 0.410108 14,975 172 401 64
2018-09-24 09:25:18 GMT 48.716492 0.409452 14,975 181 398 0
2018-09-24 09:25:14 GMT 48.722946 0.409593 14,975 184 396 0
2018-09-24 09:25:11 GMT 48.734978 0.412204 14,975 195 391 0
2018-09-24 09:25:08 GMT 48.740379 0.414589 14,975 199 388 0
2018-09-24 09:25:02 GMT 48.745148 0.417340 14,975 205 384 64
2018-09-24 09:24:57 GMT 48.752151 0.422481 14,975 210 378 0
2018-09-24 09:24:52 GMT 48.760303 0.430707 14,975 215 372 0
2018-09-24 09:24:46 GMT 48.771927 0.448749 15,000 227 357 -64
2018-09-24 09:24:42 GMT 48.771927 0.448749 15,000 238 343 0
2018-09-24 09:24:36 GMT 48.776459 0.458751 15,000 246 336 0
2018-09-24 09:24:32 GMT 48.779903 0.468292 15,000 246 336 0
2018-09-24 09:24:27 GMT 48.782867 0.479877 15,000 257 331 192
2018-09-24 09:24:22 GMT 48.784931 0.491566 14,975 259 330 192
2018-09-24 09:24:16 GMT 48.785954 0.503203 14,975 266 328 -64
2018-09-24 09:24:13 GMT 48.786163 0.513611 14,975 272 327 -192
2018-09-24 09:24:10 GMT 48.786186 0.517008 14,975 272 327 -192
2018-09-24 09:24:06 GMT 48.785534 0.527922 15,000 277 326 0
2018-09-24 09:24:00 GMT 48.784512 0.540065 15,000 278 328 -64
2018-09-24 09:23:56 GMT 48.783600 0.550373 15,000 278 333 0
2018-09-24 09:23:49 GMT 48.782276 0.566013 15,000 278 332 0
2018-09-24 09:23:45 GMT 48.781578 0.573963 15,000 278 350 64
2018-09-24 09:23:41 GMT 48.780396 0.587064 15,000 278 342 -64
2018-09-24 09:23:34 GMT 48.779343 0.599952 14,975 278 350 64
2018-09-24 09:23:28 GMT 48.777946 0.615885 14,975 278 354 64
2018-09-24 09:23:24 GMT 48.777294 0.624486 14,975 278 357 -64
2018-09-24 09:23:18 GMT 48.775246 0.647037 15,000 278 363 0
2018-09-24 09:23:13 GMT 48.774673 0.653546 15,000 278 363 0
2018-09-24 09:23:05 GMT 48.772659 0.676434 15,000 278 363 0
2018-09-24 09:23:01 GMT 48.771790 0.686434 15,000 278 363 0
2018-09-24 09:22:54 GMT 48.770416 0.702773 15,000 278 363 0
2018-09-24 09:22:50 GMT 48.769566 0.711654 15,000 278 363 0
2018-09-24 09:22:47 GMT 48.768539 0.724393 15,000 278 363 0
2018-09-24 09:22:43 GMT 48.768173 0.729534 15,000 278 363 0
2018-09-24 09:22:40 GMT 48.767334 0.737385 15,000 278 363 0
2018-09-24 09:22:36 GMT 48.766308 0.749817 15,000 278 363 0
2018-09-24 09:22:33 GMT 48.765797 0.754949 15,000 278 363 0
2018-09-24 09:22:30 GMT 48.765244 0.762282 15,000 278 363 0
2018-09-24 09:22:22 GMT 48.763550 0.781297 15,000 278 363 0
2018-09-24 09:22:14 GMT 48.761490 0.804185 15,000 278 363 0
2018-09-24 09:22:08 GMT 48.760303 0.818481 15,000 278 363 0
2018-09-24 09:22:02 GMT 48.759109 0.831017 15,000 278 363 64
2018-09-24 09:21:58 GMT 48.758057 0.844327 15,000 278 363 64
2018-09-24 09:21:52 GMT 48.756859 0.857801 15,000 278 363 0
2018-09-24 09:21:46 GMT 48.755127 0.875878 15,000 278 362 0
2018-09-24 09:21:41 GMT 48.754440 0.883766 15,000 278 361 0
2018-09-24 09:21:37 GMT 48.753616 0.894893 15,000 278 362 0
2018-09-24 09:21:32 GMT 48.752392 0.908757 15,000 278 360 -64
2018-09-24 09:21:23 GMT 48.749817 0.936373 15,000 278 361 0
2018-09-24 09:21:17 GMT 48.749130 0.943909 15,000 278 361 0
2018-09-24 09:21:13 GMT 48.748077 0.954825 15,000 278 365 0
2018-09-24 09:21:10 GMT 48.747437 0.961938 15,000 278 364 0
2018-09-24 09:21:07 GMT 48.746899 0.969977 15,000 278 363 0
2018-09-24 09:21:03 GMT 48.745499 0.984071 15,000 278 365 0
2018-09-24 09:20:57 GMT 48.744507 0.995601 15,000 278 365 0
2018-09-24 09:20:50 GMT 48.742615 1.016452 15,000 278 365 0
2018-09-24 09:20:47 GMT 48.742241 1.021150 15,000 278 365 0
2018-09-24 09:20:40 GMT 48.740192 1.042617 15,000 278 365 0
2018-09-24 09:20:37 GMT 48.739868 1.046375 15,000 278 365 0
2018-09-24 09:20:31 GMT 48.738464 1.062012 15,000 278 364 0
2018-09-24 09:20:28 GMT 48.737820 1.069794 15,000 278 363 0
2018-09-24 09:20:20 GMT 48.735901 1.089548 15,000 278 362 0
2018-09-24 09:20:17 GMT 48.735214 1.097295 15,000 278 362 0
2018-09-24 09:20:11 GMT 48.734024 1.111943 15,000 278 361 0
2018-09-24 09:20:05 GMT 48.730930 1.145108 15,000 278 361 -64
2018-09-24 09:19:58 GMT 48.730930 1.145108 15,000 278 362 0
2018-09-24 09:19:55 GMT 48.730225 1.152931 15,000 278 363 0
2018-09-24 09:19:49 GMT 48.728897 1.167086 15,000 278 363 0
2018-09-24 09:19:45 GMT 48.728027 1.176382 15,000 278 364 0
2018-09-24 09:19:35 GMT 48.725620 1.203220 15,000 278 364 0
2018-09-24 09:19:30 GMT 48.724598 1.214278 15,000 278 364 0
2018-09-24 09:19:24 GMT 48.723175 1.229694 15,000 278 364 0
2018-09-24 09:19:18 GMT 48.721664 1.245647 15,000 278 363 0
2018-09-24 09:19:14 GMT 48.720825 1.255983 15,000 278 363 0
2018-09-24 09:19:08 GMT 48.719421 1.270963 15,000 278 363 0
2018-09-24 09:19:02 GMT 48.718033 1.285617 15,000 278 362 0
2018-09-24 09:18:57 GMT 48.716858 1.298852 15,000 278 362 0
2018-09-24 09:18:52 GMT 48.715805 1.309697 15,000 278 362 0
2018-09-24 09:18:45 GMT 48.712875 1.340895 15,000 278 362 0
2018-09-24 09:18:40 GMT 48.712051 1.350262 15,000 278 362 0
2018-09-24 09:18:36 GMT 48.712051 1.350262 15,000 278 362 0
2018-09-24 09:18:31 GMT 48.710678 1.364347 15,000 278 362 0
2018-09-24 09:18:26 GMT 48.709515 1.378061 15,000 278 362 0
2018-09-24 09:18:22 GMT 48.708771 1.384783 15,000 278 362 0
2018-09-24 09:18:13 GMT 48.705002 1.424970 15,000 278 362 0
2018-09-24 09:18:06 GMT 48.705002 1.424970 15,000 278 362 0
2018-09-24 09:18:01 GMT 48.703629 1.439561 15,000 278 362 0
2018-09-24 09:17:54 GMT 48.700905 1.469205 15,000 278 362 0
2018-09-24 09:17:49 GMT 48.700058 1.477872 15,000 278 362 0
2018-09-24 09:17:45 GMT 48.700058 1.477872 15,000 278 362 0
2018-09-24 09:17:38 GMT 48.698502 1.495127 15,000 278 362 0
2018-09-24 09:17:32 GMT 48.696991 1.511958 15,000 279 361 0
2018-09-24 09:17:28 GMT 48.695923 1.522691 15,000 279 361 0
2018-09-24 09:17:24 GMT 48.695084 1.530641 15,000 279 361 0
2018-09-24 09:17:17 GMT 48.693501 1.547916 15,000 279 361 0
2018-09-24 09:17:13 GMT 48.692524 1.558035 15,000 279 361 0
2018-09-24 09:17:10 GMT 48.690948 1.574073 15,000 279 360 0
2018-09-24 09:17:07 GMT 48.690948 1.574073 15,000 279 360 0
2018-09-24 09:17:00 GMT 48.689404 1.590416 15,000 279 360 0
2018-09-24 09:16:56 GMT 48.688339 1.601257 15,000 279 360 0
2018-09-24 09:16:53 GMT 48.687637 1.609858 15,000 279 360 0
2018-09-24 09:16:49 GMT 48.686005 1.625906 15,000 279 360 0
2018-09-24 09:16:46 GMT 48.686005 1.625906 15,000 279 360 0
2018-09-24 09:16:43 GMT 48.684052 1.646793 15,000 279 360 0
2018-09-24 09:16:39 GMT 48.684052 1.646793 15,000 279 360 0
2018-09-24 09:16:34 GMT 48.683071 1.656912 15,000 279 360 0
2018-09-24 09:16:31 GMT 48.682159 1.665696 15,000 279 361 0
2018-09-24 09:16:28 GMT 48.681679 1.671657 15,000 279 361 0
2018-09-24 09:16:25 GMT 48.680981 1.679174 15,000 279 361 0
2018-09-24 09:16:22 GMT 48.680145 1.686824 15,000 279 361 0
2018-09-24 09:16:18 GMT 48.679276 1.696965 15,000 279 361 0
2018-09-24 09:16:15 GMT 48.678417 1.706061 15,000 279 361 0
2018-09-24 09:16:11 GMT 48.677582 1.715135 15,000 279 362 0
2018-09-24 09:16:08 GMT 48.677032 1.720910 15,000 279 361 0
2018-09-24 09:16:05 GMT 48.676163 1.728163 15,000 279 361 0
2018-09-24 09:15:59 GMT 48.673763 1.754415 15,000 279 361 64
2018-09-24 09:15:55 GMT 48.673763 1.754415 15,000 279 359 0
2018-09-24 09:15:52 GMT 48.672924 1.761932 15,000 279 360 64
2018-09-24 09:15:48 GMT 48.672043 1.772196 15,000 279 359 64
2018-09-24 09:15:45 GMT 48.671036 1.781757 15,000 279 359 0
2018-09-24 09:15:39 GMT 48.669800 1.795208 14,975 279 358 0
2018-09-24 09:15:32 GMT 48.668106 1.813096 14,975 279 358 0
2018-09-24 09:15:27 GMT 48.667061 1.823803 14,975 279 358 0
2018-09-24 09:15:21 GMT 48.665680 1.837745 14,975 279 358 0
2018-09-24 09:15:16 GMT 48.663986 1.854449 14,975 279 358 0
2018-09-24 09:15:10 GMT 48.662914 1.865146 15,000 279 358 0
2018-09-24 09:15:06 GMT 48.662109 1.874296 15,000 279 358 0
2018-09-24 09:15:03 GMT 48.661240 1.883794 15,000 279 357 0
2018-09-24 09:14:58 GMT 48.659191 1.904899 15,000 279 357 0
2018-09-24 09:14:55 GMT 48.659191 1.904899 15,000 279 357 0
2018-09-24 09:14:52 GMT 48.658630 1.910142 15,000 279 357 0
2018-09-24 09:14:46 GMT 48.656960 1.928245 15,000 279 357 0
2018-09-24 09:14:43 GMT 48.656113 1.935988 15,000 279 357 64
2018-09-24 09:14:39 GMT 48.655609 1.940918 14,975 279 357 64
2018-09-24 09:14:34 GMT 48.654419 1.953806 14,975 279 357 0
2018-09-24 09:14:30 GMT 48.653503 1.963313 14,975 279 358 0
2018-09-24 09:14:24 GMT 48.651627 1.982328 14,975 279 357 0
2018-09-24 09:14:20 GMT 48.650986 1.989370 14,975 279 357 0
2018-09-24 09:14:17 GMT 48.650253 1.996693 15,000 279 358 0
2018-09-24 09:14:14 GMT 48.649418 2.004499 15,000 279 358 0
2018-09-24 09:14:10 GMT 48.648193 2.018034 15,000 279 358 64
2018-09-24 09:14:07 GMT 48.647873 2.020710 15,000 279 357 64
2018-09-24 09:14:04 GMT 48.646866 2.030921 14,975 279 357 64
2018-09-24 09:13:58 GMT 48.645458 2.043818 14,975 279 357 0
2018-09-24 09:13:53 GMT 48.644249 2.056829 14,975 279 357 0
2018-09-24 09:13:50 GMT 48.643387 2.065148 15,000 279 358 0
2018-09-24 09:13:47 GMT 48.642525 2.073597 14,975 279 358 0
2018-09-24 09:13:43 GMT 48.641647 2.082754 15,000 279 358 0
2018-09-24 09:13:39 GMT 48.640804 2.091233 15,000 279 358 0
2018-09-24 09:13:34 GMT 48.639595 2.103014 14,975 279 359 -64
2018-09-24 09:13:31 GMT 48.638947 2.110431 15,000 279 361 -64
2018-09-24 09:13:28 GMT 48.638260 2.117967 15,000 279 361 -128
2018-09-24 09:13:22 GMT 48.636566 2.133877 15,000 279 363 -192
2018-09-24 09:13:18 GMT 48.635498 2.145659 15,000 279 364 -64
2018-09-24 09:13:13 GMT 48.634472 2.156211 15,000 279 365 128
2018-09-24 09:13:10 GMT 48.633774 2.163109 15,000 279 365 128
2018-09-24 09:13:07 GMT 48.632904 2.171772 14,975 279 365 576
2018-09-24 09:13:04 GMT 48.632217 2.179378 14,950 279 365 704
2018-09-24 09:13:00 GMT 48.630478 2.198322 14,700 263 361 2880
2018-09-24 09:12:56 GMT 48.630478 2.198322 14,825 278 363 1216
2018-09-24 09:12:50 GMT 48.628738 2.225999 11,875 263 361 2880
2018-09-24 09:12:45 GMT 48.628738 2.225999 14,525 272 363 1856
2018-09-24 09:12:39 GMT 48.628738 2.242197 11,875 263 361 2880
2018-09-24 09:12:35 GMT 48.629074 2.251113 14,150 266 361 2560
2018-09-24 09:12:31 GMT 48.629772 2.261304 13,900 263 362 2880
2018-09-24 09:12:28 GMT 48.630283 2.268894 13,825 262 362 2944
2018-09-24 09:12:25 GMT 48.631260 2.277567 13,575 259 363 3072
2018-09-24 09:12:20 GMT 48.633270 2.291847 13,350 257 364 3072
2018-09-24 09:12:17 GMT 48.635544 2.304093 13,175 254 366 3136
2018-09-24 09:12:14 GMT 48.635544 2.304093 13,100 253 366 3136
2018-09-24 09:12:11 GMT 48.637390 2.313185 12,825 250 367 3136
2018-09-24 09:12:07 GMT 48.639641 2.321874 12,650 250 367 3136
2018-09-24 09:12:04 GMT 48.641827 2.330475 12,550 250 368 3072
2018-09-24 09:11:57 GMT 48.646156 2.347966 12,175 250 368 3072
2018-09-24 09:11:53 GMT 48.647827 2.354877 12,050 251 367 2880
2018-09-24 09:11:48 GMT 48.650253 2.365602 11,825 253 365 2624
2018-09-24 09:11:42 GMT 48.653187 2.380853 11,575 256 364 2304
2018-09-24 09:11:38 GMT 48.654785 2.391287 11,425 263 357 1664
2018-09-24 09:11:34 GMT 48.656525 2.409034 11,225 266 352 1536
2018-09-24 09:11:26 GMT 48.657074 2.420232 11,050 270 346 1600
2018-09-24 09:11:22 GMT 48.657097 2.430219 11,000 272 343 1664
2018-09-24 09:11:18 GMT 48.656937 2.441218 10,875 273 336 1536
2018-09-24 09:11:12 GMT 48.656387 2.454740 10,725 274 333 1472
2018-09-24 09:11:09 GMT 48.656075 2.462022 10,650 274 331 1472
2018-09-24 09:11:06 GMT 48.655701 2.468960 10,575 276 327 1408
2018-09-24 09:11:03 GMT 48.655376 2.473875 10,525 277 323 1344
2018-09-24 09:11:00 GMT 48.654877 2.480797 10,500 277 322 1344
2018-09-24 09:10:56 GMT 48.653870 2.490798 10,350 279 314 1280
2018-09-24 09:10:53 GMT 48.653000 2.498378 10,275 281 309 1280
2018-09-24 09:10:50 GMT 48.652302 2.503582 10,225 282 304 1344
2018-09-24 09:10:43 GMT 48.650436 2.517066 10,075 283 299 1408
2018-09-24 09:10:40 GMT 48.649090 2.526277 9,975 283 294 1472
2018-09-24 09:10:35 GMT 48.647835 2.534083 9,850 280 289 1856
2018-09-24 09:10:32 GMT 48.647320 2.540010 9,775 273 290 2432
2018-09-24 09:10:28 GMT 48.646774 2.547913 9,625 271 290 2560
2018-09-24 09:10:25 GMT 48.646912 2.555307 9,275 262 292 0
2018-09-24 09:10:21 GMT 48.647736 2.563547 9,275 259 293 2688
2018-09-24 09:10:18 GMT 48.648972 2.570378 9,125 253 294 2688
2018-09-24 09:10:14 GMT 48.650253 2.576294 9,025 250 294 2688
2018-09-24 09:10:08 GMT 48.653824 2.586646 8,725 239 295 2752
2018-09-24 09:10:03 GMT 48.657990 2.595731 8,500 231 296 2752
2018-09-24 09:09:57 GMT 48.663483 2.603901 8,225 222 296 2752
2018-09-24 09:09:52 GMT 48.668922 2.609903 7,425 193 291 2496
2018-09-24 09:09:49 GMT 48.672691 2.613228 7,850 206 294 2688
2018-09-24 09:09:45 GMT 48.678131 2.616929 7,450 194 292 2496
2018-09-24 09:09:42 GMT 48.681519 2.618408 7,425 194 292 2496
2018-09-24 09:09:39 GMT 48.685448 2.619806 7,425 188 290 2368
2018-09-24 09:09:34 GMT 48.692825 2.620944 7,150 177 286 2368
2018-09-24 09:09:30 GMT 48.697273 2.620817 7,150 177 286 2368
2018-09-24 09:09:27 GMT 48.701843 2.619958 6,325 166 281 2624
2018-09-24 09:09:21 GMT 48.708755 2.617000 6,725 161 279 2688
2018-09-24 09:09:16 GMT 48.715473 2.612433 6,425 148 273 2752
2018-09-24 09:09:12 GMT 48.721851 2.605639 6,200 140 270 2816
2018-09-24 09:09:04 GMT 48.726414 2.598411 5,775 125 264 2880
2018-09-24 09:09:00 GMT 48.729347 2.592195 5,675 121 263 2816
2018-09-24 09:08:56 GMT 48.731415 2.586365 5,525 114 260 2688
2018-09-24 09:08:52 GMT 48.733337 2.579393 5,350 107 257 2560
2018-09-24 09:08:49 GMT 48.734608 2.572246 5,250 95 251 2560
2018-09-24 09:08:43 GMT 48.735352 2.563547 4,950 92 249 2688
2018-09-24 09:08:38 GMT 48.735210 2.552514 4,650 85 246 2880
2018-09-24 09:08:33 GMT 48.734711 2.546363 4,475 83 243 2688
2018-09-24 09:08:27 GMT 48.733814 2.534662 4,300 83 241 2432
2018-09-24 09:08:21 GMT 48.732979 2.525699 4,050 83 235 1664
2018-09-24 09:08:15 GMT 48.732468 2.517348 3,800 83 224 1664
2018-09-24 09:08:11 GMT 48.731441 2.504232 3,675 83 218 1664
2018-09-24 09:08:07 GMT 48.731441 2.504232 3,650 83 216 1536
2018-09-24 09:08:04 GMT 48.731094 2.499671 3,575 84 211 1344
2018-09-24 09:08:01 GMT 48.730743 2.495270 3,500 88 177 2368
2018-09-24 09:07:58 GMT 48.730415 2.491367 3,475 87 185 1280
2018-09-24 09:07:55 GMT 48.730232 2.487319 3,400 84 200 1472
2018-09-24 09:07:51 GMT 48.729721 2.477910 3,225 87 185 1280
2018-09-24 09:07:45 GMT 48.729534 2.473803 3,175 87 185 1280
2018-09-24 09:07:42 GMT 48.729538 2.469248 2,925 88 177 2432
2018-09-24 09:07:39 GMT 48.729355 2.466008 3,000 88 177 2368
2018-09-24 09:07:35 GMT 48.729172 2.460585 2,825 87 176 2496
2018-09-24 09:07:32 GMT 48.729172 2.456994 2,700 86 175 2432
2018-09-24 09:07:27 GMT 48.728851 2.451148 2,500 85 174 2496
2018-09-24 09:07:24 GMT 48.728649 2.447132 2,300 80 173 2688
2018-09-24 09:07:21 GMT 48.728184 2.443591 2,125 73 173 3136
2018-09-24 09:07:17 GMT 48.727669 2.439254 2,050 76 172 2880
2018-09-24 09:07:13 GMT 48.726791 2.434669 1,875 73 172 3072
2018-09-24 09:07:07 GMT 48.725464 2.428119 1,575 73 174 3008
2018-09-24 09:07:03 GMT 48.724365 2.422774 1,350 74 174 2752
2018-09-24 09:06:58 GMT 48.722878 2.414029 1,000 75 172 2432
2018-09-24 09:06:52 GMT 48.722031 2.409738 575 75 173 2688
2018-09-24 09:06:46 GMT 48.720779 2.403042 625 75 173 2752
2018-09-24 09:06:42 GMT 48.719925 2.397625 400 75 172 2432
2018-09-24 09:06:34 GMT 48.718266 2.388153 25 74 171 2432
2018-09-24 09:06:17 GMT 48.714462 2.368493 -225 74 169 1024
2018-09-24 09:05:36 GMT 48.710808 2.348508 0 3
2018-09-24 09:05:27 GMT 48.710632 2.348328 0 0
2018-09-24 09:04:45 GMT 48.710632 2.347641 0 5
2018-09-24 09:00:24 GMT 48.712509 2.344032 0 9
2018-09-24 09:00:07 GMT 48.713036 2.343856 0 9
2018-09-24 09:00:04 GMT 48.713196 2.343856 0 8
2018-09-24 08:59:49 GMT 48.713722 2.344366 0 7
2018-09-24 08:59:35 GMT 48.713890 2.344894 0 7
2018-09-24 08:59:30 GMT 48.713890 2.345057 0 6

Making use of Plane Finder data

You are free to use the raw flight data, aircraft information and images provided in this report for your own purposes provided the data is correctly attributed to Plane Finder. We ask that you please credit Plane Finder and link to planefinder.net in close proximity to the content.

Optionally one of the following logos (no smaller then 150x24px) can be used and must link to planefinder.net

Embedding the Plane Finder map

You are welcome to embed the Plane Finder playback map on your website to offer visitors a more interactive experience. We suggest using the following HTML code:

<iframe src="//planefinder.net/data/report/B0100-F-HTAG-7700-squawk-2018-09-24/map" width="800" height="600" seamless="seamless"></iframe>

Where our data comes from

Plane Finder has a global network of data feeds and antenna radars that receive data broadcast directly from aircraft. The primary technologies used are ADS-B and MLAT. We also show feeds from the FAA and a FLARM glider feed.

Click here to find out more about the Plane Finder network.

How we collect our data